sensor_id;sensor_type;location;lat;lon;timestamp;temperature;humidity
837;DHT22;400;53.550;9.932;2023-03-20T00:01:17;11.60;99.90
837;DHT22;400;53.550;9.932;2023-03-20T00:03:45;11.60;99.90
837;DHT22;400;53.550;9.932;2023-03-20T00:06:17;11.60;99.90
837;DHT22;400;53.550;9.932;2023-03-20T00:08:44;11.60;99.90
837;DHT22;400;53.550;9.932;2023-03-20T00:11:26;11.50;99.90
837;DHT22;400;53.550;9.932;2023-03-20T00:13:56;11.50;99.90
837;DHT22;400;53.550;9.932;2023-03-20T00:16:28;11.60;99.90
837;DHT22;400;53.550;9.932;2023-03-20T00:18:56;11.50;99.90
837;DHT22;400;53.550;9.932;2023-03-20T00:21:23;11.20;99.90
837;DHT22;400;53.550;9.932;2023-03-20T00:23:51;11.20;99.90
837;DHT22;400;53.550;9.932;2023-03-20T00:26:20;11.30;99.90
837;DHT22;400;53.550;9.932;2023-03-20T00:28:49;11.40;99.90
837;DHT22;400;53.550;9.932;2023-03-20T00:31:22;11.20;99.90
837;DHT22;400;53.550;9.932;2023-03-20T00:33:50;11.30;99.90
837;DHT22;400;53.550;9.932;2023-03-20T00:36:17;11.30;99.90
837;DHT22;400;53.550;9.932;2023-03-20T00:38:44;11.30;99.90
837;DHT22;400;53.550;9.932;2023-03-20T00:41:22;11.20;99.90
837;DHT22;400;53.550;9.932;2023-03-20T00:43:51;11.00;99.90
837;DHT22;400;53.550;9.932;2023-03-20T00:46:19;10.80;99.90
837;DHT22;400;53.550;9.932;2023-03-20T00:48:46;10.90;99.90
837;DHT22;400;53.550;9.932;2023-03-20T00:51:17;11.00;99.90
837;DHT22;400;53.550;9.932;2023-03-20T00:53:44;11.10;99.90
837;DHT22;400;53.550;9.932;2023-03-20T00:56:29;11.20;99.90
837;DHT22;400;53.550;9.932;2023-03-20T00:58:57;11.10;99.90
837;DHT22;400;53.550;9.932;2023-03-20T01:01:24;11.20;99.90
837;DHT22;400;53.550;9.932;2023-03-20T01:03:52;11.10;99.90
837;DHT22;400;53.550;9.932;2023-03-20T01:06:19;11.10;99.90
837;DHT22;400;53.550;9.932;2023-03-20T01:08:46;11.10;99.90
837;DHT22;400;53.550;9.932;2023-03-20T01:11:13;11.20;99.90
837;DHT22;400;53.550;9.932;2023-03-20T01:13:43;11.20;99.90
837;DHT22;400;53.550;9.932;2023-03-20T01:16:18;11.10;99.90
837;DHT22;400;53.550;9.932;2023-03-20T01:18:45;10.90;99.90
837;DHT22;400;53.550;9.932;2023-03-20T01:21:13;10.90;99.90
837;DHT22;400;53.550;9.932;2023-03-20T01:23:42;11.00;99.90
837;DHT22;400;53.550;9.932;2023-03-20T01:26:20;10.90;99.90
837;DHT22;400;53.550;9.932;2023-03-20T01:28:49;10.90;99.90
837;DHT22;400;53.550;9.932;2023-03-20T01:31:17;11.00;99.90
837;DHT22;400;53.550;9.932;2023-03-20T01:33:45;11.00;99.90
837;DHT22;400;53.550;9.932;2023-03-20T01:36:14;10.90;99.90
837;DHT22;400;53.550;9.932;2023-03-20T01:38:41;10.90;99.90
837;DHT22;400;53.550;9.932;2023-03-20T01:41:12;11.00;99.90
837;DHT22;400;53.550;9.932;2023-03-20T01:43:42;11.00;99.90
837;DHT22;400;53.550;9.932;2023-03-20T01:46:19;10.90;99.90
837;DHT22;400;53.550;9.932;2023-03-20T01:49:04;10.90;99.90
837;DHT22;400;53.550;9.932;2023-03-20T01:51:32;10.80;99.90
837;DHT22;400;53.550;9.932;2023-03-20T01:54:05;10.80;99.90
837;DHT22;400;53.550;9.932;2023-03-20T01:56:37;10.80;99.90
837;DHT22;400;53.550;9.932;2023-03-20T01:59:09;10.90;99.90
837;DHT22;400;53.550;9.932;2023-03-20T02:01:39;10.70;99.90
837;DHT22;400;53.550;9.932;2023-03-20T02:04:07;10.80;99.90
837;DHT22;400;53.550;9.932;2023-03-20T02:06:35;10.80;99.90
837;DHT22;400;53.550;9.932;2023-03-20T02:09:03;10.80;99.90
837;DHT22;400;53.550;9.932;2023-03-20T02:11:30;10.60;99.90
837;DHT22;400;53.550;9.932;2023-03-20T02:13:58;10.60;99.90
837;DHT22;400;53.550;9.932;2023-03-20T02:16:26;10.50;99.90
837;DHT22;400;53.550;9.932;2023-03-20T02:18:55;10.50;99.90
837;DHT22;400;53.550;9.932;2023-03-20T02:27:45;10.40;99.90
837;DHT22;400;53.550;9.932;2023-03-20T02:30:46;10.20;99.90
837;DHT22;400;53.550;9.932;2023-03-20T02:33:47;10.20;99.90
837;DHT22;400;53.550;9.932;2023-03-20T02:36:51;10.10;99.90
837;DHT22;400;53.550;9.932;2023-03-20T02:39:41;10.00;99.90
837;DHT22;400;53.550;9.932;2023-03-20T02:42:14;10.00;99.90
837;DHT22;400;53.550;9.932;2023-03-20T02:44:49;10.10;99.90
837;DHT22;400;53.550;9.932;2023-03-20T02:47:21;10.00;99.90
837;DHT22;400;53.550;9.932;2023-03-20T02:49:53;10.00;99.90
837;DHT22;400;53.550;9.932;2023-03-20T02:52:30;10.00;99.90
837;DHT22;400;53.550;9.932;2023-03-20T02:55:09;9.90;99.90
837;DHT22;400;53.550;9.932;2023-03-20T02:57:46;10.00;99.90
837;DHT22;400;53.550;9.932;2023-03-20T03:00:23;9.90;99.90
837;DHT22;400;53.550;9.932;2023-03-20T03:02:59;10.00;99.90
837;DHT22;400;53.550;9.932;2023-03-20T03:05:31;9.80;99.90
837;DHT22;400;53.550;9.932;2023-03-20T03:08:02;9.80;99.90
837;DHT22;400;53.550;9.932;2023-03-20T03:10:34;9.80;99.90
837;DHT22;400;53.550;9.932;2023-03-20T03:13:03;9.80;99.90
837;DHT22;400;53.550;9.932;2023-03-20T03:15:37;9.90;99.90
837;DHT22;400;53.550;9.932;2023-03-20T03:18:06;9.80;99.90
837;DHT22;400;53.550;9.932;2023-03-20T03:20:38;9.80;99.90
837;DHT22;400;53.550;9.932;2023-03-20T03:23:06;9.80;99.90
837;DHT22;400;53.550;9.932;2023-03-20T03:25:37;9.80;99.90
837;DHT22;400;53.550;9.932;2023-03-20T03:28:10;10.00;99.90
837;DHT22;400;53.550;9.932;2023-03-20T03:30:47;10.00;99.90
837;DHT22;400;53.550;9.932;2023-03-20T03:33:19;9.90;99.90
837;DHT22;400;53.550;9.932;2023-03-20T03:35:47;9.90;99.90
837;DHT22;400;53.550;9.932;2023-03-20T03:38:25;10.00;99.90
837;DHT22;400;53.550;9.932;2023-03-20T03:41:06;10.10;99.90
837;DHT22;400;53.550;9.932;2023-03-20T03:43:41;9.90;99.90
837;DHT22;400;53.550;9.932;2023-03-20T03:46:15;9.90;99.90
837;DHT22;400;53.550;9.932;2023-03-20T03:48:46;9.90;99.90
837;DHT22;400;53.550;9.932;2023-03-20T03:51:16;10.00;99.90
837;DHT22;400;53.550;9.932;2023-03-20T03:53:50;9.90;99.90
837;DHT22;400;53.550;9.932;2023-03-20T03:56:22;10.00;99.90
837;DHT22;400;53.550;9.932;2023-03-20T03:58:55;10.00;99.90
837;DHT22;400;53.550;9.932;2023-03-20T04:01:31;9.80;99.90
837;DHT22;400;53.550;9.932;2023-03-20T04:04:03;9.80;99.90
837;DHT22;400;53.550;9.932;2023-03-20T04:06:32;9.80;99.90
837;DHT22;400;53.550;9.932;2023-03-20T04:09:00;9.80;99.90
837;DHT22;400;53.550;9.932;2023-03-20T04:11:28;9.80;99.90
837;DHT22;400;53.550;9.932;2023-03-20T04:13:55;9.80;99.90
837;DHT22;400;53.550;9.932;2023-03-20T04:16:23;9.80;99.90
837;DHT22;400;53.550;9.932;2023-03-20T04:18:51;9.70;99.90
837;DHT22;400;53.550;9.932;2023-03-20T04:21:19;9.70;99.90
837;DHT22;400;53.550;9.932;2023-03-20T04:23:46;9.80;99.90
837;DHT22;400;53.550;9.932;2023-03-20T04:26:13;9.60;99.90
837;DHT22;400;53.550;9.932;2023-03-20T04:28:41;9.70;99.90
837;DHT22;400;53.550;9.932;2023-03-20T04:31:08;9.70;99.90
837;DHT22;400;53.550;9.932;2023-03-20T04:33:35;9.70;99.90
837;DHT22;400;53.550;9.932;2023-03-20T04:36:02;9.70;99.90
837;DHT22;400;53.550;9.932;2023-03-20T04:38:30;9.60;99.90
837;DHT22;400;53.550;9.932;2023-03-20T04:40:57;9.60;99.90
837;DHT22;400;53.550;9.932;2023-03-20T04:43:24;9.60;99.90
837;DHT22;400;53.550;9.932;2023-03-20T04:45:53;9.50;99.90
837;DHT22;400;53.550;9.932;2023-03-20T04:48:20;9.50;99.90
837;DHT22;400;53.550;9.932;2023-03-20T04:50:47;9.50;99.90
837;DHT22;400;53.550;9.932;2023-03-20T04:53:16;9.40;99.90
837;DHT22;400;53.550;9.932;2023-03-20T04:55:43;9.40;99.90
837;DHT22;400;53.550;9.932;2023-03-20T04:58:11;9.30;99.90
837;DHT22;400;53.550;9.932;2023-03-20T05:00:38;9.40;99.90
837;DHT22;400;53.550;9.932;2023-03-20T05:03:09;9.50;99.90
837;DHT22;400;53.550;9.932;2023-03-20T05:05:41;9.50;99.90
837;DHT22;400;53.550;9.932;2023-03-20T05:08:08;9.40;99.90
837;DHT22;400;53.550;9.932;2023-03-20T05:10:36;9.40;99.90
837;DHT22;400;53.550;9.932;2023-03-20T05:13:02;9.30;99.90
837;DHT22;400;53.550;9.932;2023-03-20T05:15:29;9.40;99.90
837;DHT22;400;53.550;9.932;2023-03-20T05:17:56;9.30;99.90
837;DHT22;400;53.550;9.932;2023-03-20T05:20:25;9.30;99.90
837;DHT22;400;53.550;9.932;2023-03-20T05:22:53;9.30;99.90
837;DHT22;400;53.550;9.932;2023-03-20T05:25:24;9.30;99.90
837;DHT22;400;53.550;9.932;2023-03-20T05:27:53;9.20;99.90
837;DHT22;400;53.550;9.932;2023-03-20T05:30:20;9.20;99.90
837;DHT22;400;53.550;9.932;2023-03-20T05:32:48;9.20;99.90
837;DHT22;400;53.550;9.932;2023-03-20T05:35:15;9.20;99.90
837;DHT22;400;53.550;9.932;2023-03-20T05:37:43;9.10;99.90
837;DHT22;400;53.550;9.932;2023-03-20T05:40:13;9.20;99.90
837;DHT22;400;53.550;9.932;2023-03-20T05:42:41;9.20;99.90
837;DHT22;400;53.550;9.932;2023-03-20T05:45:08;9.20;99.90
837;DHT22;400;53.550;9.932;2023-03-20T05:47:35;9.10;99.90
837;DHT22;400;53.550;9.932;2023-03-20T05:50:03;9.10;99.90
837;DHT22;400;53.550;9.932;2023-03-20T05:52:30;9.20;99.90
837;DHT22;400;53.550;9.932;2023-03-20T05:54:58;9.20;99.90
837;DHT22;400;53.550;9.932;2023-03-20T05:57:25;9.10;99.90
837;DHT22;400;53.550;9.932;2023-03-20T05:59:52;9.10;99.90
837;DHT22;400;53.550;9.932;2023-03-20T06:02:18;9.10;99.90
837;DHT22;400;53.550;9.932;2023-03-20T06:04:45;9.20;99.90
837;DHT22;400;53.550;9.932;2023-03-20T06:07:12;9.20;99.90
837;DHT22;400;53.550;9.932;2023-03-20T06:09:39;9.20;99.90
837;DHT22;400;53.550;9.932;2023-03-20T06:12:07;9.30;99.90
837;DHT22;400;53.550;9.932;2023-03-20T06:14:37;9.40;99.90
837;DHT22;400;53.550;9.932;2023-03-20T06:17:05;9.40;99.90
837;DHT22;400;53.550;9.932;2023-03-20T06:19:32;9.30;99.90
837;DHT22;400;53.550;9.932;2023-03-20T06:21:58;9.40;99.90
837;DHT22;400;53.550;9.932;2023-03-20T06:24:25;9.40;99.90
837;DHT22;400;53.550;9.932;2023-03-20T06:26:55;9.60;99.90
837;DHT22;400;53.550;9.932;2023-03-20T06:29:32;9.60;99.90
837;DHT22;400;53.550;9.932;2023-03-20T06:32:01;9.70;99.90
837;DHT22;400;53.550;9.932;2023-03-20T06:34:29;9.70;99.90
837;DHT22;400;53.550;9.932;2023-03-20T06:36:56;9.70;99.90
837;DHT22;400;53.550;9.932;2023-03-20T06:39:25;9.70;99.90
837;DHT22;400;53.550;9.932;2023-03-20T06:41:55;9.80;99.90
837;DHT22;400;53.550;9.932;2023-03-20T06:44:24;9.90;99.90
837;DHT22;400;53.550;9.932;2023-03-20T06:46:53;10.00;99.90
837;DHT22;400;53.550;9.932;2023-03-20T06:49:20;10.00;99.90
837;DHT22;400;53.550;9.932;2023-03-20T06:51:47;9.90;99.90
837;DHT22;400;53.550;9.932;2023-03-20T06:54:15;9.90;99.90
837;DHT22;400;53.550;9.932;2023-03-20T06:56:42;10.00;99.90
837;DHT22;400;53.550;9.932;2023-03-20T06:59:09;10.00;99.90
837;DHT22;400;53.550;9.932;2023-03-20T07:01:37;10.00;99.90
837;DHT22;400;53.550;9.932;2023-03-20T07:04:05;10.00;99.90
837;DHT22;400;53.550;9.932;2023-03-20T07:06:35;10.00;99.90
837;DHT22;400;53.550;9.932;2023-03-20T07:09:02;10.00;99.90
837;DHT22;400;53.550;9.932;2023-03-20T07:11:30;9.80;99.90
837;DHT22;400;53.550;9.932;2023-03-20T07:13:58;9.90;99.90
837;DHT22;400;53.550;9.932;2023-03-20T07:16:27;9.90;99.90
837;DHT22;400;53.550;9.932;2023-03-20T07:18:56;10.00;99.90
837;DHT22;400;53.550;9.932;2023-03-20T07:21:27;10.00;99.90
837;DHT22;400;53.550;9.932;2023-03-20T07:23:54;10.10;99.90
837;DHT22;400;53.550;9.932;2023-03-20T07:26:21;10.10;99.90
837;DHT22;400;53.550;9.932;2023-03-20T07:28:50;10.10;99.90
837;DHT22;400;53.550;9.932;2023-03-20T07:31:20;10.10;99.90
837;DHT22;400;53.550;9.932;2023-03-20T07:33:50;9.90;99.90
837;DHT22;400;53.550;9.932;2023-03-20T07:36:18;9.90;99.90
837;DHT22;400;53.550;9.932;2023-03-20T07:38:47;9.90;99.90
837;DHT22;400;53.550;9.932;2023-03-20T07:41:13;10.00;99.90
837;DHT22;400;53.550;9.932;2023-03-20T07:43:42;9.90;99.90
837;DHT22;400;53.550;9.932;2023-03-20T07:46:12;10.10;99.90
837;DHT22;400;53.550;9.932;2023-03-20T07:48:40;10.00;99.90
837;DHT22;400;53.550;9.932;2023-03-20T07:51:08;10.10;99.90
837;DHT22;400;53.550;9.932;2023-03-20T07:53:36;10.20;99.90
837;DHT22;400;53.550;9.932;2023-03-20T07:56:08;10.30;99.90
837;DHT22;400;53.550;9.932;2023-03-20T07:58:40;10.40;99.90
837;DHT22;400;53.550;9.932;2023-03-20T08:01:15;10.40;99.90
837;DHT22;400;53.550;9.932;2023-03-20T08:03:42;10.40;99.90
837;DHT22;400;53.550;9.932;2023-03-20T08:06:11;10.50;99.90
837;DHT22;400;53.550;9.932;2023-03-20T08:08:52;10.50;99.90
837;DHT22;400;53.550;9.932;2023-03-20T08:11:26;10.50;99.90
837;DHT22;400;53.550;9.932;2023-03-20T08:13:56;10.30;99.90
837;DHT22;400;53.550;9.932;2023-03-20T08:16:27;10.20;99.90
837;DHT22;400;53.550;9.932;2023-03-20T08:18:58;10.10;99.90
837;DHT22;400;53.550;9.932;2023-03-20T08:21:26;10.20;99.90
837;DHT22;400;53.550;9.932;2023-03-20T08:23:55;10.30;99.90
837;DHT22;400;53.550;9.932;2023-03-20T08:26:27;10.40;99.90
837;DHT22;400;53.550;9.932;2023-03-20T08:28:56;10.30;99.90
837;DHT22;400;53.550;9.932;2023-03-20T08:31:26;10.40;99.90
837;DHT22;400;53.550;9.932;2023-03-20T08:33:54;10.50;99.90
837;DHT22;400;53.550;9.932;2023-03-20T08:36:22;10.60;99.90
837;DHT22;400;53.550;9.932;2023-03-20T08:38:49;10.60;99.90
837;DHT22;400;53.550;9.932;2023-03-20T08:41:17;10.50;99.90
837;DHT22;400;53.550;9.932;2023-03-20T08:43:46;10.60;99.90
837;DHT22;400;53.550;9.932;2023-03-20T08:46:13;10.60;99.90
837;DHT22;400;53.550;9.932;2023-03-20T08:48:40;10.70;99.90
837;DHT22;400;53.550;9.932;2023-03-20T08:54:48;10.50;99.90
837;DHT22;400;53.550;9.932;2023-03-20T12:27:14;11.30;99.90
837;DHT22;400;53.550;9.932;2023-03-20T12:29:46;11.50;99.90
837;DHT22;400;53.550;9.932;2023-03-20T12:32:23;11.60;99.90
837;DHT22;400;53.550;9.932;2023-03-20T12:34:57;11.60;99.90
837;DHT22;400;53.550;9.932;2023-03-20T12:37:30;11.70;99.90
837;DHT22;400;53.550;9.932;2023-03-20T12:40:02;11.70;99.90
837;DHT22;400;53.550;9.932;2023-03-20T12:42:38;11.90;99.90
837;DHT22;400;53.550;9.932;2023-03-20T12:45:11;11.90;99.90
837;DHT22;400;53.550;9.932;2023-03-20T12:48:04;12.00;99.90
837;DHT22;400;53.550;9.932;2023-03-20T12:50:36;12.10;99.90
837;DHT22;400;53.550;9.932;2023-03-20T12:53:20;12.20;99.90
837;DHT22;400;53.550;9.932;2023-03-20T12:55:57;12.40;99.90
837;DHT22;400;53.550;9.932;2023-03-20T12:58:39;12.20;99.90
837;DHT22;400;53.550;9.932;2023-03-20T13:01:13;12.30;99.90
837;DHT22;400;53.550;9.932;2023-03-20T13:03:57;12.50;99.90
837;DHT22;400;53.550;9.932;2023-03-20T13:06:38;12.60;99.90
837;DHT22;400;53.550;9.932;2023-03-20T13:12:42;12.60;99.90
837;DHT22;400;53.550;9.932;2023-03-20T13:15:34;12.50;99.90
837;DHT22;400;53.550;9.932;2023-03-20T13:18:16;12.60;99.90
837;DHT22;400;53.550;9.932;2023-03-20T13:20:49;12.30;99.90
837;DHT22;400;53.550;9.932;2023-03-20T13:23:22;12.20;99.90
837;DHT22;400;53.550;9.932;2023-03-20T13:26:03;12.20;99.90
837;DHT22;400;53.550;9.932;2023-03-20T13:28:38;12.10;99.90
837;DHT22;400;53.550;9.932;2023-03-20T13:31:17;12.10;99.90
837;DHT22;400;53.550;9.932;2023-03-20T13:33:50;12.10;99.90
837;DHT22;400;53.550;9.932;2023-03-20T13:36:32;12.20;99.90
837;DHT22;400;53.550;9.932;2023-03-20T13:39:09;12.40;99.90
837;DHT22;400;53.550;9.932;2023-03-20T13:41:39;12.30;99.90
837;DHT22;400;53.550;9.932;2023-03-20T13:44:10;12.20;99.90
837;DHT22;400;53.550;9.932;2023-03-20T13:46:44;12.10;99.90
837;DHT22;400;53.550;9.932;2023-03-20T13:49:18;12.10;99.90
837;DHT22;400;53.550;9.932;2023-03-20T13:51:53;12.10;99.90
837;DHT22;400;53.550;9.932;2023-03-20T13:54:48;12.10;99.90
837;DHT22;400;53.550;9.932;2023-03-20T13:57:39;12.10;99.90
837;DHT22;400;53.550;9.932;2023-03-20T14:00:22;11.90;99.90
837;DHT22;400;53.550;9.932;2023-03-20T14:03:07;11.90;99.90
837;DHT22;400;53.550;9.932;2023-03-20T14:05:38;12.00;99.90
837;DHT22;400;53.550;9.932;2023-03-20T14:08:28;12.00;99.90
837;DHT22;400;53.550;9.932;2023-03-20T14:11:14;12.10;99.90
837;DHT22;400;53.550;9.932;2023-03-20T14:14:06;12.00;99.90
837;DHT22;400;53.550;9.932;2023-03-20T14:16:33;12.00;99.90
837;DHT22;400;53.550;9.932;2023-03-20T14:19:07;12.10;99.90
837;DHT22;400;53.550;9.932;2023-03-20T14:21:35;12.10;99.90
837;DHT22;400;53.550;9.932;2023-03-20T14:24:03;12.10;99.90
837;DHT22;400;53.550;9.932;2023-03-20T14:26:36;12.10;99.90
837;DHT22;400;53.550;9.932;2023-03-20T14:29:32;12.00;99.90
837;DHT22;400;53.550;9.932;2023-03-20T14:32:05;12.10;99.90
837;DHT22;400;53.550;9.932;2023-03-20T14:34:52;12.00;99.90
837;DHT22;400;53.550;9.932;2023-03-20T14:37:49;12.10;99.90
837;DHT22;400;53.550;9.932;2023-03-20T14:40:29;12.10;99.90
837;DHT22;400;53.550;9.932;2023-03-20T14:43:03;12.10;99.90
837;DHT22;400;53.550;9.932;2023-03-20T14:45:41;12.00;99.90
837;DHT22;400;53.550;9.932;2023-03-20T14:48:23;11.90;99.90
837;DHT22;400;53.550;9.932;2023-03-20T14:51:06;11.80;99.90
837;DHT22;400;53.550;9.932;2023-03-20T14:53:34;11.80;99.90
837;DHT22;400;53.550;9.932;2023-03-20T14:56:09;11.90;99.90
837;DHT22;400;53.550;9.932;2023-03-20T14:58:47;11.90;99.90
837;DHT22;400;53.550;9.932;2023-03-20T15:01:17;11.90;99.90
837;DHT22;400;53.550;9.932;2023-03-20T15:03:50;11.90;99.90
837;DHT22;400;53.550;9.932;2023-03-20T15:06:21;12.00;99.90
837;DHT22;400;53.550;9.932;2023-03-20T15:08:50;11.90;99.90
837;DHT22;400;53.550;9.932;2023-03-20T15:11:21;11.80;99.90
837;DHT22;400;53.550;9.932;2023-03-20T15:13:50;11.70;99.90
837;DHT22;400;53.550;9.932;2023-03-20T15:16:26;11.70;99.90
837;DHT22;400;53.550;9.932;2023-03-20T15:18:55;11.80;99.90
837;DHT22;400;53.550;9.932;2023-03-20T15:21:31;11.80;99.90
837;DHT22;400;53.550;9.932;2023-03-20T15:23:59;11.80;99.90
837;DHT22;400;53.550;9.932;2023-03-20T15:26:33;11.70;99.90
837;DHT22;400;53.550;9.932;2023-03-20T15:29:06;11.70;99.90
837;DHT22;400;53.550;9.932;2023-03-20T15:31:38;11.80;99.90
837;DHT22;400;53.550;9.932;2023-03-20T15:34:08;11.80;99.90
837;DHT22;400;53.550;9.932;2023-03-20T15:36:38;11.80;99.90
837;DHT22;400;53.550;9.932;2023-03-20T15:39:13;11.80;99.90
837;DHT22;400;53.550;9.932;2023-03-20T15:41:44;11.70;99.90
837;DHT22;400;53.550;9.932;2023-03-20T15:44:18;11.80;99.90
837;DHT22;400;53.550;9.932;2023-03-20T15:46:52;11.80;99.90
837;DHT22;400;53.550;9.932;2023-03-20T15:49:20;11.80;99.90
837;DHT22;400;53.550;9.932;2023-03-20T15:51:50;11.80;99.90
837;DHT22;400;53.550;9.932;2023-03-20T15:54:19;11.70;99.90
837;DHT22;400;53.550;9.932;2023-03-20T15:56:51;11.70;99.90
837;DHT22;400;53.550;9.932;2023-03-20T15:59:21;11.70;99.90
837;DHT22;400;53.550;9.932;2023-03-20T16:01:56;11.90;99.90
837;DHT22;400;53.550;9.932;2023-03-20T16:04:28;11.90;99.90
837;DHT22;400;53.550;9.932;2023-03-20T16:07:00;11.90;99.90
837;DHT22;400;53.550;9.932;2023-03-20T16:09:28;11.90;99.90
837;DHT22;400;53.550;9.932;2023-03-20T16:11:56;11.80;99.90
837;DHT22;400;53.550;9.932;2023-03-20T16:14:25;11.70;99.90
837;DHT22;400;53.550;9.932;2023-03-20T16:16:55;11.50;99.90
837;DHT22;400;53.550;9.932;2023-03-20T16:19:25;11.40;99.90
837;DHT22;400;53.550;9.932;2023-03-20T16:21:57;11.40;99.90
837;DHT22;400;53.550;9.932;2023-03-20T16:24:28;11.50;99.90
837;DHT22;400;53.550;9.932;2023-03-20T16:26:57;11.60;99.90
837;DHT22;400;53.550;9.932;2023-03-20T16:29:27;11.50;99.90
837;DHT22;400;53.550;9.932;2023-03-20T16:31:57;11.70;99.90
837;DHT22;400;53.550;9.932;2023-03-20T16:34:29;11.80;99.90
837;DHT22;400;53.550;9.932;2023-03-20T16:37:00;11.80;99.90
837;DHT22;400;53.550;9.932;2023-03-20T16:39:29;11.60;99.90
837;DHT22;400;53.550;9.932;2023-03-20T16:42:07;11.50;99.90
837;DHT22;400;53.550;9.932;2023-03-20T16:44:39;11.40;99.90
837;DHT22;400;53.550;9.932;2023-03-20T16:47:23;11.40;99.90
837;DHT22;400;53.550;9.932;2023-03-20T16:50:18;11.30;99.90
837;DHT22;400;53.550;9.932;2023-03-20T16:52:50;11.40;99.90
837;DHT22;400;53.550;9.932;2023-03-20T16:55:23;11.50;99.90
837;DHT22;400;53.550;9.932;2023-03-20T16:57:54;11.50;99.90
837;DHT22;400;53.550;9.932;2023-03-20T17:00:26;11.50;99.90
837;DHT22;400;53.550;9.932;2023-03-20T17:02:59;11.50;99.90
837;DHT22;400;53.550;9.932;2023-03-20T17:05:50;11.30;99.90
837;DHT22;400;53.550;9.932;2023-03-20T17:08:29;11.30;99.90
837;DHT22;400;53.550;9.932;2023-03-20T17:11:07;11.20;99.90
837;DHT22;400;53.550;9.932;2023-03-20T17:13:36;11.20;99.90
837;DHT22;400;53.550;9.932;2023-03-20T17:16:05;11.10;99.90
837;DHT22;400;53.550;9.932;2023-03-20T17:18:35;11.00;99.90
837;DHT22;400;53.550;9.932;2023-03-20T17:21:08;11.00;99.90
837;DHT22;400;53.550;9.932;2023-03-20T17:23:42;10.90;99.90
837;DHT22;400;53.550;9.932;2023-03-20T17:26:10;10.80;99.90
837;DHT22;400;53.550;9.932;2023-03-20T17:28:37;10.90;99.90
837;DHT22;400;53.550;9.932;2023-03-20T17:31:08;10.80;99.90
837;DHT22;400;53.550;9.932;2023-03-20T17:33:38;10.90;99.90
837;DHT22;400;53.550;9.932;2023-03-20T17:36:09;10.90;99.90
837;DHT22;400;53.550;9.932;2023-03-20T17:38:41;10.70;99.90
837;DHT22;400;53.550;9.932;2023-03-20T17:41:12;10.80;99.90
837;DHT22;400;53.550;9.932;2023-03-20T17:43:40;10.90;99.90
837;DHT22;400;53.550;9.932;2023-03-20T17:46:16;11.00;99.90
837;DHT22;400;53.550;9.932;2023-03-20T17:48:44;11.10;99.90
837;DHT22;400;53.550;9.932;2023-03-20T17:51:12;11.10;99.90
837;DHT22;400;53.550;9.932;2023-03-20T17:53:40;10.90;99.90
837;DHT22;400;53.550;9.932;2023-03-20T17:56:10;10.80;99.90
837;DHT22;400;53.550;9.932;2023-03-20T17:58:40;10.90;99.90
837;DHT22;400;53.550;9.932;2023-03-20T18:01:11;10.90;99.90
837;DHT22;400;53.550;9.932;2023-03-20T18:03:38;10.60;99.90
837;DHT22;400;53.550;9.932;2023-03-20T18:06:09;10.70;99.90
837;DHT22;400;53.550;9.932;2023-03-20T18:08:37;10.70;99.90
837;DHT22;400;53.550;9.932;2023-03-20T18:11:07;10.70;99.90
837;DHT22;400;53.550;9.932;2023-03-20T18:13:34;10.70;99.90
837;DHT22;400;53.550;9.932;2023-03-20T18:16:01;10.70;99.90
837;DHT22;400;53.550;9.932;2023-03-20T18:18:28;10.70;99.90
837;DHT22;400;53.550;9.932;2023-03-20T18:20:55;10.80;99.90
837;DHT22;400;53.550;9.932;2023-03-20T18:23:23;10.80;99.90
837;DHT22;400;53.550;9.932;2023-03-20T18:25:54;10.90;99.90
837;DHT22;400;53.550;9.932;2023-03-20T18:28:24;10.90;99.90
837;DHT22;400;53.550;9.932;2023-03-20T18:30:54;11.00;99.90
837;DHT22;400;53.550;9.932;2023-03-20T18:33:21;11.00;99.90
837;DHT22;400;53.550;9.932;2023-03-20T18:35:52;10.90;99.90
837;DHT22;400;53.550;9.932;2023-03-20T18:38:19;11.00;99.90
837;DHT22;400;53.550;9.932;2023-03-20T18:40:52;11.00;99.90
837;DHT22;400;53.550;9.932;2023-03-20T18:43:29;11.10;99.90
837;DHT22;400;53.550;9.932;2023-03-20T18:45:57;11.20;99.90
837;DHT22;400;53.550;9.932;2023-03-20T18:48:25;11.20;99.90
837;DHT22;400;53.550;9.932;2023-03-20T18:50:55;11.10;99.90
837;DHT22;400;53.550;9.932;2023-03-20T18:53:27;11.00;99.90
837;DHT22;400;53.550;9.932;2023-03-20T18:55:54;10.90;99.90
837;DHT22;400;53.550;9.932;2023-03-20T18:58:23;10.80;99.90
837;DHT22;400;53.550;9.932;2023-03-20T19:00:52;10.80;99.90
837;DHT22;400;53.550;9.932;2023-03-20T19:03:20;10.80;99.90
837;DHT22;400;53.550;9.932;2023-03-20T19:05:49;10.80;99.90
837;DHT22;400;53.550;9.932;2023-03-20T19:08:19;10.80;99.90
837;DHT22;400;53.550;9.932;2023-03-20T19:10:51;10.80;99.90
837;DHT22;400;53.550;9.932;2023-03-20T19:13:21;10.90;99.90
837;DHT22;400;53.550;9.932;2023-03-20T19:15:50;11.00;99.90
837;DHT22;400;53.550;9.932;2023-03-20T19:18:19;10.90;99.90
837;DHT22;400;53.550;9.932;2023-03-20T19:20:47;11.00;99.90
837;DHT22;400;53.550;9.932;2023-03-20T19:23:16;11.00;99.90
837;DHT22;400;53.550;9.932;2023-03-20T19:25:47;11.00;99.90
837;DHT22;400;53.550;9.932;2023-03-20T19:28:18;11.10;99.90
837;DHT22;400;53.550;9.932;2023-03-20T19:30:48;11.10;99.90
837;DHT22;400;53.550;9.932;2023-03-20T19:33:22;11.10;99.90
837;DHT22;400;53.550;9.932;2023-03-20T19:35:51;11.20;99.90
837;DHT22;400;53.550;9.932;2023-03-20T19:38:21;11.10;99.90
837;DHT22;400;53.550;9.932;2023-03-20T19:40:49;11.10;99.90
837;DHT22;400;53.550;9.932;2023-03-20T19:43:18;11.20;99.90
837;DHT22;400;53.550;9.932;2023-03-20T19:45:49;11.10;99.90
837;DHT22;400;53.550;9.932;2023-03-20T19:48:21;11.10;99.90
837;DHT22;400;53.550;9.932;2023-03-20T19:50:52;11.10;99.90
837;DHT22;400;53.550;9.932;2023-03-20T19:53:22;11.10;99.90
837;DHT22;400;53.550;9.932;2023-03-20T19:55:53;10.90;99.90
837;DHT22;400;53.550;9.932;2023-03-20T19:58:20;10.80;99.90
837;DHT22;400;53.550;9.932;2023-03-20T20:00:48;10.80;99.90
837;DHT22;400;53.550;9.932;2023-03-20T20:03:17;10.60;99.90
837;DHT22;400;53.550;9.932;2023-03-20T20:05:46;10.30;99.90
837;DHT22;400;53.550;9.932;2023-03-20T20:08:14;10.50;99.90
837;DHT22;400;53.550;9.932;2023-03-20T20:10:43;10.60;99.90
837;DHT22;400;53.550;9.932;2023-03-20T20:13:14;10.70;99.90
837;DHT22;400;53.550;9.932;2023-03-20T20:15:42;10.70;99.90
837;DHT22;400;53.550;9.932;2023-03-20T20:18:09;10.80;99.90
837;DHT22;400;53.550;9.932;2023-03-20T20:20:36;10.80;99.90
837;DHT22;400;53.550;9.932;2023-03-20T20:23:08;10.90;99.90
837;DHT22;400;53.550;9.932;2023-03-20T20:25:36;10.90;99.90
837;DHT22;400;53.550;9.932;2023-03-20T20:28:03;10.90;99.90
837;DHT22;400;53.550;9.932;2023-03-20T20:30:31;11.00;99.90
837;DHT22;400;53.550;9.932;2023-03-20T20:32:59;11.00;99.90
837;DHT22;400;53.550;9.932;2023-03-20T20:35:27;11.00;99.90
837;DHT22;400;53.550;9.932;2023-03-20T20:37:54;11.00;99.90
837;DHT22;400;53.550;9.932;2023-03-20T20:40:24;11.00;99.90
837;DHT22;400;53.550;9.932;2023-03-20T20:42:51;10.70;99.90
837;DHT22;400;53.550;9.932;2023-03-20T20:45:22;10.50;99.90
837;DHT22;400;53.550;9.932;2023-03-20T20:47:49;10.60;99.90
837;DHT22;400;53.550;9.932;2023-03-20T20:50:18;10.60;99.90